sensor_id;sensor_type;location;lat;lon;timestamp;pressure;altitude;pressure_sealevel;temperature;humidity
28701;BME280;15877;52.344;16.790;2022-12-07T00:02:00;100120.00;;;6.30;79.12
28701;BME280;15877;52.344;16.790;2022-12-07T00:04:29;100118.71;;;6.32;79.06
28701;BME280;15877;52.344;16.790;2022-12-07T00:06:58;100117.35;;;6.24;79.11
28701;BME280;15877;52.344;16.790;2022-12-07T00:09:28;100118.39;;;6.27;79.16
28701;BME280;15877;52.344;16.790;2022-12-07T00:11:59;100116.23;;;6.24;79.49
28701;BME280;15877;52.344;16.790;2022-12-07T00:14:28;100119.66;;;6.20;79.58
28701;BME280;15877;52.344;16.790;2022-12-07T00:16:57;100110.15;;;6.01;79.87
28701;BME280;15877;52.344;16.790;2022-12-07T00:19:27;100121.36;;;6.12;80.03
28701;BME280;15877;52.344;16.790;2022-12-07T00:21:57;100115.94;;;6.11;80.07
28701;BME280;15877;52.344;16.790;2022-12-07T00:24:26;100118.52;;;6.10;80.29
28701;BME280;15877;52.344;16.790;2022-12-07T00:26:55;100112.55;;;6.13;80.27
28701;BME280;15877;52.344;16.790;2022-12-07T00:29:24;100113.80;;;6.15;80.21
28701;BME280;15877;52.344;16.790;2022-12-07T00:31:53;100112.86;;;6.22;80.13
28701;BME280;15877;52.344;16.790;2022-12-07T00:34:22;100116.15;;;6.24;79.85
28701;BME280;15877;52.344;16.790;2022-12-07T00:36:51;100108.19;;;6.22;79.98
28701;BME280;15877;52.344;16.790;2022-12-07T00:39:20;100108.24;;;6.23;79.95
28701;BME280;15877;52.344;16.790;2022-12-07T00:41:49;100096.83;;;6.18;79.81
28701;BME280;15877;52.344;16.790;2022-12-07T00:44:18;100108.77;;;6.17;80.23
28701;BME280;15877;52.344;16.790;2022-12-07T00:46:47;100106.95;;;6.22;80.08
28701;BME280;15877;52.344;16.790;2022-12-07T00:49:15;100106.39;;;6.29;79.78
28701;BME280;15877;52.344;16.790;2022-12-07T00:51:44;100100.70;;;6.21;80.03
28701;BME280;15877;52.344;16.790;2022-12-07T00:54:13;100100.48;;;6.19;80.39
28701;BME280;15877;52.344;16.790;2022-12-07T00:56:42;100101.33;;;6.26;79.84
28701;BME280;15877;52.344;16.790;2022-12-07T00:59:14;100103.09;;;6.17;80.05
28701;BME280;15877;52.344;16.790;2022-12-07T01:01:43;100102.48;;;6.11;80.22
28701;BME280;15877;52.344;16.790;2022-12-07T01:04:12;100102.65;;;6.07;80.56
28701;BME280;15877;52.344;16.790;2022-12-07T01:06:41;100105.42;;;6.14;80.37
28701;BME280;15877;52.344;16.790;2022-12-07T01:09:12;100105.04;;;6.07;80.84
28701;BME280;15877;52.344;16.790;2022-12-07T01:11:43;100106.70;;;6.19;80.55
28701;BME280;15877;52.344;16.790;2022-12-07T01:14:13;100102.56;;;6.06;80.97
28701;BME280;15877;52.344;16.790;2022-12-07T01:16:41;100100.73;;;6.24;80.60
28701;BME280;15877;52.344;16.790;2022-12-07T01:19:13;100092.73;;;6.19;80.65
28701;BME280;15877;52.344;16.790;2022-12-07T01:21:42;100092.57;;;6.23;80.62
28701;BME280;15877;52.344;16.790;2022-12-07T01:24:11;100094.90;;;6.32;80.19
28701;BME280;15877;52.344;16.790;2022-12-07T01:26:40;100086.16;;;6.27;80.14
28701;BME280;15877;52.344;16.790;2022-12-07T01:29:09;100087.42;;;6.15;80.65
28701;BME280;15877;52.344;16.790;2022-12-07T01:31:38;100086.23;;;6.23;80.64
28701;BME280;15877;52.344;16.790;2022-12-07T01:34:10;100084.73;;;6.22;80.93
28701;BME280;15877;52.344;16.790;2022-12-07T01:36:39;100088.84;;;6.18;80.76
28701;BME280;15877;52.344;16.790;2022-12-07T01:39:10;100090.17;;;6.25;80.62
28701;BME280;15877;52.344;16.790;2022-12-07T01:41:40;100090.73;;;6.22;80.44
28701;BME280;15877;52.344;16.790;2022-12-07T01:44:16;100088.20;;;6.15;80.67
28701;BME280;15877;52.344;16.790;2022-12-07T01:46:47;100090.23;;;6.17;80.44
28701;BME280;15877;52.344;16.790;2022-12-07T01:49:21;100088.38;;;6.23;80.34
28701;BME280;15877;52.344;16.790;2022-12-07T01:51:54;100086.78;;;6.36;79.76
28701;BME280;15877;52.344;16.790;2022-12-07T01:54:26;100084.48;;;6.22;79.88
28701;BME280;15877;52.344;16.790;2022-12-07T01:56:57;100085.69;;;6.23;80.08
28701;BME280;15877;52.344;16.790;2022-12-07T01:59:26;100080.93;;;6.22;79.98
28701;BME280;15877;52.344;16.790;2022-12-07T02:01:56;100068.81;;;6.15;79.77
28701;BME280;15877;52.344;16.790;2022-12-07T02:04:25;100078.55;;;6.21;79.87
28701;BME280;15877;52.344;16.790;2022-12-07T02:06:54;100075.36;;;6.23;80.07
28701;BME280;15877;52.344;16.790;2022-12-07T02:09:24;100073.56;;;6.15;80.04
28701;BME280;15877;52.344;16.790;2022-12-07T02:11:54;100073.48;;;6.23;79.99
28701;BME280;15877;52.344;16.790;2022-12-07T02:14:25;100073.70;;;6.20;79.78
28701;BME280;15877;52.344;16.790;2022-12-07T02:17:06;100071.91;;;6.26;79.69
28701;BME280;15877;52.344;16.790;2022-12-07T02:20:02;100067.72;;;6.32;79.24
28701;BME280;15877;52.344;16.790;2022-12-07T02:22:51;100059.99;;;6.32;78.95
28701;BME280;15877;52.344;16.790;2022-12-07T02:25:34;100057.77;;;6.29;79.24
28701;BME280;15877;52.344;16.790;2022-12-07T02:28:14;100053.20;;;6.34;78.90
28701;BME280;15877;52.344;16.790;2022-12-07T02:30:49;100048.58;;;6.35;78.80
28701;BME280;15877;52.344;16.790;2022-12-07T02:33:25;100042.18;;;6.34;78.86
28701;BME280;15877;52.344;16.790;2022-12-07T02:36:00;100044.02;;;6.45;78.54
28701;BME280;15877;52.344;16.790;2022-12-07T02:38:31;100035.73;;;6.47;78.13
28701;BME280;15877;52.344;16.790;2022-12-07T02:41:07;100040.61;;;6.44;78.12
28701;BME280;15877;52.344;16.790;2022-12-07T02:43:40;100043.02;;;6.46;78.18
28701;BME280;15877;52.344;16.790;2022-12-07T02:46:13;100045.77;;;6.48;77.87
28701;BME280;15877;52.344;16.790;2022-12-07T02:48:43;100047.84;;;6.41;78.10
28701;BME280;15877;52.344;16.790;2022-12-07T02:51:14;100047.29;;;6.43;78.22
28701;BME280;15877;52.344;16.790;2022-12-07T02:53:44;100045.00;;;6.49;78.12
28701;BME280;15877;52.344;16.790;2022-12-07T02:56:18;100046.15;;;6.52;77.80
28701;BME280;15877;52.344;16.790;2022-12-07T02:59:01;100043.98;;;6.51;77.59
28701;BME280;15877;52.344;16.790;2022-12-07T03:01:37;100047.52;;;6.56;77.39
28701;BME280;15877;52.344;16.790;2022-12-07T03:04:18;100046.55;;;6.40;77.70
28701;BME280;15877;52.344;16.790;2022-12-07T03:06:51;100044.31;;;6.42;77.52
28701;BME280;15877;52.344;16.790;2022-12-07T03:09:29;100049.63;;;6.31;78.05
28701;BME280;15877;52.344;16.790;2022-12-07T03:12:04;100048.82;;;6.38;77.96
28701;BME280;15877;52.344;16.790;2022-12-07T03:14:40;100044.27;;;6.38;77.72
28701;BME280;15877;52.344;16.790;2022-12-07T03:17:13;100051.11;;;6.43;77.70
28701;BME280;15877;52.344;16.790;2022-12-07T03:19:46;100040.39;;;6.37;77.49
28701;BME280;15877;52.344;16.790;2022-12-07T03:22:21;100050.63;;;6.30;78.12
28701;BME280;15877;52.344;16.790;2022-12-07T03:24:52;100045.54;;;6.51;77.47
28701;BME280;15877;52.344;16.790;2022-12-07T03:27:25;100044.60;;;6.53;77.44
28701;BME280;15877;52.344;16.790;2022-12-07T03:30:00;100045.01;;;6.53;77.36
28701;BME280;15877;52.344;16.790;2022-12-07T03:32:35;100045.89;;;6.59;77.12
28701;BME280;15877;52.344;16.790;2022-12-07T03:35:10;100040.73;;;6.48;77.42
28701;BME280;15877;52.344;16.790;2022-12-07T03:37:42;100036.77;;;6.48;77.47
28701;BME280;15877;52.344;16.790;2022-12-07T03:40:19;100042.45;;;6.50;77.27
28701;BME280;15877;52.344;16.790;2022-12-07T03:42:52;100033.48;;;6.58;76.90
28701;BME280;15877;52.344;16.790;2022-12-07T03:45:26;100033.77;;;6.55;76.83
28701;BME280;15877;52.344;16.790;2022-12-07T03:48:03;100030.34;;;6.59;76.70
28701;BME280;15877;52.344;16.790;2022-12-07T03:50:40;100034.55;;;6.57;76.17
28701;BME280;15877;52.344;16.790;2022-12-07T03:53:15;100034.68;;;6.54;76.04
28701;BME280;15877;52.344;16.790;2022-12-07T03:55:47;100034.44;;;6.54;76.09
28701;BME280;15877;52.344;16.790;2022-12-07T03:58:20;100031.48;;;6.53;76.29
28701;BME280;15877;52.344;16.790;2022-12-07T04:00:50;100034.48;;;6.60;75.87
28701;BME280;15877;52.344;16.790;2022-12-07T04:03:20;100029.31;;;6.56;75.69
28701;BME280;15877;52.344;16.790;2022-12-07T04:05:49;100031.34;;;6.55;76.00
28701;BME280;15877;52.344;16.790;2022-12-07T04:08:17;100033.64;;;6.53;76.27
28701;BME280;15877;52.344;16.790;2022-12-07T04:10:46;100035.45;;;6.56;76.32
28701;BME280;15877;52.344;16.790;2022-12-07T04:13:15;100033.40;;;6.50;76.46
28701;BME280;15877;52.344;16.790;2022-12-07T04:15:44;100020.59;;;6.44;76.72
28701;BME280;15877;52.344;16.790;2022-12-07T04:18:14;100028.10;;;6.38;77.27
28701;BME280;15877;52.344;16.790;2022-12-07T04:20:43;100019.11;;;6.48;77.22
28701;BME280;15877;52.344;16.790;2022-12-07T04:23:13;100010.61;;;6.50;76.91
28701;BME280;15877;52.344;16.790;2022-12-07T04:25:44;100008.80;;;6.40;77.08
28701;BME280;15877;52.344;16.790;2022-12-07T04:28:13;100010.13;;;6.43;76.88
28701;BME280;15877;52.344;16.790;2022-12-07T04:30:42;100010.19;;;6.37;76.87
28701;BME280;15877;52.344;16.790;2022-12-07T04:33:11;100008.23;;;6.30;77.18
28701;BME280;15877;52.344;16.790;2022-12-07T04:35:42;100009.55;;;6.23;77.24
28701;BME280;15877;52.344;16.790;2022-12-07T04:38:13;100005.34;;;6.26;77.49
28701;BME280;15877;52.344;16.790;2022-12-07T04:40:42;100007.63;;;6.26;77.25
28701;BME280;15877;52.344;16.790;2022-12-07T04:43:11;100010.11;;;6.25;77.47
28701;BME280;15877;52.344;16.790;2022-12-07T04:45:45;99993.31;;;6.20;77.54
28701;BME280;15877;52.344;16.790;2022-12-07T04:48:14;100007.66;;;6.45;76.91
28701;BME280;15877;52.344;16.790;2022-12-07T04:50:43;99990.19;;;6.28;77.08
28701;BME280;15877;52.344;16.790;2022-12-07T04:53:15;99997.95;;;6.40;76.94
28701;BME280;15877;52.344;16.790;2022-12-07T04:55:45;99999.84;;;6.26;77.07
28701;BME280;15877;52.344;16.790;2022-12-07T04:58:15;99996.96;;;6.11;77.69
28701;BME280;15877;52.344;16.790;2022-12-07T05:00:44;99982.30;;;6.08;77.88
28701;BME280;15877;52.344;16.790;2022-12-07T05:03:13;99994.23;;;6.38;77.37
28701;BME280;15877;52.344;16.790;2022-12-07T05:05:43;99989.43;;;6.39;77.15
28701;BME280;15877;52.344;16.790;2022-12-07T05:08:17;99985.23;;;6.33;77.16
28701;BME280;15877;52.344;16.790;2022-12-07T05:10:45;99983.41;;;6.33;76.96
28701;BME280;15877;52.344;16.790;2022-12-07T05:13:17;99983.11;;;6.18;77.54
28701;BME280;15877;52.344;16.790;2022-12-07T05:15:46;99979.96;;;6.04;77.86
28701;BME280;15877;52.344;16.790;2022-12-07T05:18:16;99978.52;;;6.13;77.89
28701;BME280;15877;52.344;16.790;2022-12-07T05:20:45;99949.88;;;6.07;77.67
28701;BME280;15877;52.344;16.790;2022-12-07T05:23:14;99973.91;;;6.22;77.65
28701;BME280;15877;52.344;16.790;2022-12-07T05:25:43;99977.05;;;6.23;77.51
28701;BME280;15877;52.344;16.790;2022-12-07T05:28:12;99966.36;;;6.15;77.61
28701;BME280;15877;52.344;16.790;2022-12-07T05:30:41;99971.82;;;6.25;77.38
28701;BME280;15877;52.344;16.790;2022-12-07T05:33:11;99970.20;;;6.31;77.40
28701;BME280;15877;52.344;16.790;2022-12-07T05:35:40;99971.55;;;6.34;77.27
28701;BME280;15877;52.344;16.790;2022-12-07T05:38:09;99970.35;;;6.29;77.28
28701;BME280;15877;52.344;16.790;2022-12-07T05:40:38;99972.96;;;6.29;77.22
28701;BME280;15877;52.344;16.790;2022-12-07T05:43:06;99971.67;;;6.15;77.60
28701;BME280;15877;52.344;16.790;2022-12-07T05:45:35;99971.46;;;6.04;78.18
28701;BME280;15877;52.344;16.790;2022-12-07T05:48:05;99971.14;;;6.07;78.52
28701;BME280;15877;52.344;16.790;2022-12-07T05:50:34;99959.35;;;6.05;78.58
28701;BME280;15877;52.344;16.790;2022-12-07T05:53:02;99967.15;;;6.34;78.00
28701;BME280;15877;52.344;16.790;2022-12-07T05:55:32;99961.84;;;6.46;77.52
28701;BME280;15877;52.344;16.790;2022-12-07T05:58:01;99950.45;;;6.40;77.53
28701;BME280;15877;52.344;16.790;2022-12-07T06:00:48;99962.65;;;6.52;77.54
28701;BME280;15877;52.344;16.790;2022-12-07T06:03:19;99953.30;;;6.46;77.25
28701;BME280;15877;52.344;16.790;2022-12-07T06:05:48;99962.74;;;6.50;77.37
28701;BME280;15877;52.344;16.790;2022-12-07T06:08:17;99963.21;;;6.53;77.34
28701;BME280;15877;52.344;16.790;2022-12-07T06:10:48;99965.94;;;6.51;77.01
28701;BME280;15877;52.344;16.790;2022-12-07T06:13:39;99958.80;;;6.25;77.53
28701;BME280;15877;52.344;16.790;2022-12-07T06:16:14;99962.77;;;6.34;77.43
28701;BME280;15877;52.344;16.790;2022-12-07T06:18:46;99963.86;;;6.33;77.36
28701;BME280;15877;52.344;16.790;2022-12-07T06:21:16;99964.70;;;6.22;77.55
28701;BME280;15877;52.344;16.790;2022-12-07T06:23:47;99965.56;;;5.97;78.52
28701;BME280;15877;52.344;16.790;2022-12-07T06:26:16;99963.32;;;6.00;78.97
28701;BME280;15877;52.344;16.790;2022-12-07T06:28:47;99963.71;;;6.16;78.49
28701;BME280;15877;52.344;16.790;2022-12-07T06:31:16;99952.82;;;6.05;78.42
28701;BME280;15877;52.344;16.790;2022-12-07T06:33:46;99957.39;;;6.17;78.24
28701;BME280;15877;52.344;16.790;2022-12-07T06:36:15;99960.52;;;6.02;77.94
28701;BME280;15877;52.344;16.790;2022-12-07T06:38:52;99959.45;;;5.82;78.17
28701;BME280;15877;52.344;16.790;2022-12-07T06:41:21;99961.75;;;5.74;78.73
28701;BME280;15877;52.344;16.790;2022-12-07T06:43:50;99961.30;;;5.85;78.52
28701;BME280;15877;52.344;16.790;2022-12-07T06:46:24;99959.11;;;6.20;77.22
28701;BME280;15877;52.344;16.790;2022-12-07T06:48:53;99959.61;;;6.22;76.73
28701;BME280;15877;52.344;16.790;2022-12-07T06:51:22;99959.30;;;6.18;76.58
28701;BME280;15877;52.344;16.790;2022-12-07T06:53:51;99957.36;;;6.04;76.95
28701;BME280;15877;52.344;16.790;2022-12-07T06:56:20;99958.98;;;6.20;76.05
28701;BME280;15877;52.344;16.790;2022-12-07T06:58:49;99959.31;;;6.24;75.88
28701;BME280;15877;52.344;16.790;2022-12-07T07:01:18;99954.76;;;6.22;75.82
28701;BME280;15877;52.344;16.790;2022-12-07T07:03:47;99955.83;;;6.26;75.87
28701;BME280;15877;52.344;16.790;2022-12-07T07:06:16;99950.25;;;6.24;75.99
28701;BME280;15877;52.344;16.790;2022-12-07T07:08:45;99953.17;;;6.26;75.89
28701;BME280;15877;52.344;16.790;2022-12-07T07:11:14;99951.37;;;6.12;76.16
28701;BME280;15877;52.344;16.790;2022-12-07T07:13:43;99943.13;;;6.23;75.91
28701;BME280;15877;52.344;16.790;2022-12-07T07:16:13;99947.98;;;6.14;76.01
28701;BME280;15877;52.344;16.790;2022-12-07T07:18:42;99948.17;;;6.18;75.95
28701;BME280;15877;52.344;16.790;2022-12-07T07:21:10;99952.05;;;6.21;75.60
28701;BME280;15877;52.344;16.790;2022-12-07T07:23:39;99951.79;;;6.12;75.85
28701;BME280;15877;52.344;16.790;2022-12-07T07:26:08;99953.63;;;6.08;75.99
28701;BME280;15877;52.344;16.790;2022-12-07T07:28:37;99955.35;;;6.08;75.87
28701;BME280;15877;52.344;16.790;2022-12-07T07:31:06;99953.09;;;6.01;75.38
28701;BME280;15877;52.344;16.790;2022-12-07T07:33:36;99953.14;;;5.96;74.90
28701;BME280;15877;52.344;16.790;2022-12-07T07:36:06;99955.56;;;5.56;76.07
28701;BME280;15877;52.344;16.790;2022-12-07T07:38:35;99956.33;;;5.58;76.08
28701;BME280;15877;52.344;16.790;2022-12-07T07:41:04;99952.77;;;5.59;75.53
28701;BME280;15877;52.344;16.790;2022-12-07T07:43:33;99947.10;;;5.55;75.36
28701;BME280;15877;52.344;16.790;2022-12-07T07:46:02;99933.30;;;5.43;75.14
28701;BME280;15877;52.344;16.790;2022-12-07T07:48:31;99945.83;;;5.21;75.24
28701;BME280;15877;52.344;16.790;2022-12-07T07:51:00;99945.45;;;5.17;75.76
28701;BME280;15877;52.344;16.790;2022-12-07T07:53:29;99944.66;;;5.08;76.01
28701;BME280;15877;52.344;16.790;2022-12-07T07:55:57;99946.36;;;5.16;75.81
28701;BME280;15877;52.344;16.790;2022-12-07T07:58:27;99946.55;;;5.17;76.00
28701;BME280;15877;52.344;16.790;2022-12-07T08:00:55;99938.55;;;5.22;76.35
28701;BME280;15877;52.344;16.790;2022-12-07T08:03:24;99926.96;;;5.26;75.96
28701;BME280;15877;52.344;16.790;2022-12-07T08:05:53;99935.77;;;5.37;76.25
28701;BME280;15877;52.344;16.790;2022-12-07T08:08:21;99933.36;;;5.49;76.06
28701;BME280;15877;52.344;16.790;2022-12-07T08:10:50;99932.77;;;5.55;75.53
28701;BME280;15877;52.344;16.790;2022-12-07T08:13:19;99931.30;;;5.53;75.72
28701;BME280;15877;52.344;16.790;2022-12-07T08:15:48;99924.52;;;5.60;75.35
28701;BME280;15877;52.344;16.790;2022-12-07T08:18:17;99919.65;;;5.49;75.63
28701;BME280;15877;52.344;16.790;2022-12-07T08:20:46;99919.34;;;5.65;75.44
28701;BME280;15877;52.344;16.790;2022-12-07T08:23:15;99921.10;;;5.75;75.13
28701;BME280;15877;52.344;16.790;2022-12-07T08:25:44;99924.27;;;5.94;74.52
28701;BME280;15877;52.344;16.790;2022-12-07T08:28:13;99925.46;;;5.71;74.54
28701;BME280;15877;52.344;16.790;2022-12-07T08:30:41;99913.71;;;5.43;75.65
28701;BME280;15877;52.344;16.790;2022-12-07T08:33:10;99920.27;;;5.56;76.01
28701;BME280;15877;52.344;16.790;2022-12-07T08:35:39;99925.41;;;5.77;75.40
28701;BME280;15877;52.344;16.790;2022-12-07T08:38:08;99918.98;;;5.61;75.07
28701;BME280;15877;52.344;16.790;2022-12-07T08:40:37;99921.11;;;5.54;75.30
28701;BME280;15877;52.344;16.790;2022-12-07T08:43:06;99922.95;;;5.65;75.27
28701;BME280;15877;52.344;16.790;2022-12-07T08:45:35;99921.17;;;5.54;74.82
28701;BME280;15877;52.344;16.790;2022-12-07T08:48:07;99915.56;;;5.51;75.29
28701;BME280;15877;52.344;16.790;2022-12-07T08:50:38;99913.73;;;5.51;75.48
28701;BME280;15877;52.344;16.790;2022-12-07T08:53:15;99905.24;;;5.47;75.12
28701;BME280;15877;52.344;16.790;2022-12-07T08:55:45;99905.63;;;5.30;75.75
28701;BME280;15877;52.344;16.790;2022-12-07T08:58:14;99903.42;;;5.35;76.02
28701;BME280;15877;52.344;16.790;2022-12-07T09:00:43;99896.59;;;5.48;75.85
28701;BME280;15877;52.344;16.790;2022-12-07T09:03:12;99896.53;;;5.50;75.91
28701;BME280;15877;52.344;16.790;2022-12-07T09:05:41;99891.29;;;5.39;76.36
28701;BME280;15877;52.344;16.790;2022-12-07T09:08:10;99877.09;;;5.42;76.35
28701;BME280;15877;52.344;16.790;2022-12-07T09:10:39;99870.19;;;5.41;76.36
28701;BME280;15877;52.344;16.790;2022-12-07T09:13:08;99880.92;;;5.35;76.89
28701;BME280;15877;52.344;16.790;2022-12-07T09:15:37;99877.31;;;5.26;77.19
28701;BME280;15877;52.344;16.790;2022-12-07T09:18:06;99878.95;;;5.23;77.31
28701;BME280;15877;52.344;16.790;2022-12-07T09:20:34;99873.48;;;5.18;77.49
28701;BME280;15877;52.344;16.790;2022-12-07T09:23:05;99872.52;;;5.37;76.93
28701;BME280;15877;52.344;16.790;2022-12-07T09:25:35;99874.88;;;5.19;77.43
28701;BME280;15877;52.344;16.790;2022-12-07T09:28:04;99872.71;;;5.18;77.60
28701;BME280;15877;52.344;16.790;2022-12-07T09:30:33;99861.32;;;5.16;77.86
28701;BME280;15877;52.344;16.790;2022-12-07T09:33:21;99860.43;;;5.36;77.53
28701;BME280;15877;52.344;16.790;2022-12-07T09:35:51;99860.46;;;5.37;77.34
28701;BME280;15877;52.344;16.790;2022-12-07T09:38:20;99856.81;;;5.39;77.57
28701;BME280;15877;52.344;16.790;2022-12-07T09:40:49;99856.04;;;5.11;78.42
28701;BME280;15877;52.344;16.790;2022-12-07T09:43:20;99849.64;;;5.29;78.23
28701;BME280;15877;52.344;16.790;2022-12-07T09:45:52;99843.30;;;5.23;78.43
28701;BME280;15877;52.344;16.790;2022-12-07T09:48:24;99843.66;;;5.10;78.33
28701;BME280;15877;52.344;16.790;2022-12-07T09:50:55;99843.83;;;5.08;78.27
28701;BME280;15877;52.344;16.790;2022-12-07T09:53:28;99844.80;;;5.09;77.99
28701;BME280;15877;52.344;16.790;2022-12-07T09:55:59;99840.58;;;5.10;77.71
28701;BME280;15877;52.344;16.790;2022-12-07T09:58:29;99836.30;;;5.23;77.86
28701;BME280;15877;52.344;16.790;2022-12-07T10:01:05;99827.34;;;5.16;78.09
28701;BME280;15877;52.344;16.790;2022-12-07T10:03:39;99829.36;;;5.16;78.39
28701;BME280;15877;52.344;16.790;2022-12-07T10:06:11;99828.76;;;4.89;79.25
28701;BME280;15877;52.344;16.790;2022-12-07T10:08:41;99823.23;;;4.83;79.98
28701;BME280;15877;52.344;16.790;2022-12-07T10:11:11;99822.09;;;4.82;80.30
28701;BME280;15877;52.344;16.790;2022-12-07T10:13:41;99819.11;;;5.12;79.46
28701;BME280;15877;52.344;16.790;2022-12-07T10:16:32;99818.42;;;4.90;80.03
28701;BME280;15877;52.344;16.790;2022-12-07T10:19:19;99812.39;;;4.99;79.68
28701;BME280;15877;52.344;16.790;2022-12-07T10:22:05;99812.05;;;4.89;79.71
28701;BME280;15877;52.344;16.790;2022-12-07T10:24:38;99809.71;;;5.07;78.79
28701;BME280;15877;52.344;16.790;2022-12-07T10:27:19;99805.89;;;5.10;78.11
28701;BME280;15877;52.344;16.790;2022-12-07T10:29:50;99803.48;;;5.08;77.62
28701;BME280;15877;52.344;16.790;2022-12-07T10:32:29;99806.61;;;4.75;78.97
28701;BME280;15877;52.344;16.790;2022-12-07T10:35:20;99807.75;;;4.95;78.59
28701;BME280;15877;52.344;16.790;2022-12-07T10:37:50;99812.80;;;4.72;79.39
28701;BME280;15877;52.344;16.790;2022-12-07T10:40:30;99811.48;;;4.71;80.07
28701;BME280;15877;52.344;16.790;2022-12-07T10:43:05;99805.27;;;5.08;79.49
28701;BME280;15877;52.344;16.790;2022-12-07T10:45:35;99800.66;;;4.92;79.71
28701;BME280;15877;52.344;16.790;2022-12-07T10:48:37;99785.27;;;4.74;80.53
28701;BME280;15877;52.344;16.790;2022-12-07T10:51:13;99789.42;;;4.81;81.32
28701;BME280;15877;52.344;16.790;2022-12-07T10:53:54;99786.92;;;5.05;80.65
28701;BME280;15877;52.344;16.790;2022-12-07T10:56:38;99779.89;;;4.99;81.28
28701;BME280;15877;52.344;16.790;2022-12-07T10:59:26;99778.81;;;5.17;80.96
28701;BME280;15877;52.344;16.790;2022-12-07T11:02:06;99777.33;;;5.24;80.69
28701;BME280;15877;52.344;16.790;2022-12-07T11:05:01;99774.71;;;5.11;81.20
28701;BME280;15877;52.344;16.790;2022-12-07T11:07:41;99767.01;;;5.11;81.39
28701;BME280;15877;52.344;16.790;2022-12-07T11:10:18;99771.94;;;5.08;81.33
28701;BME280;15877;52.344;16.790;2022-12-07T11:16:24;99773.77;;;4.56;81.09
28701;BME280;15877;52.344;16.790;2022-12-07T11:19:13;99766.99;;;4.64;80.49
28701;BME280;15877;52.344;16.790;2022-12-07T11:21:50;99759.59;;;4.80;79.89
28701;BME280;15877;52.344;16.790;2022-12-07T11:24:26;99753.82;;;4.72;80.33
28701;BME280;15877;52.344;16.790;2022-12-07T11:27:05;99750.46;;;4.68;81.28
28701;BME280;15877;52.344;16.790;2022-12-07T11:29:49;99746.80;;;4.90;81.23
28701;BME280;15877;52.344;16.790;2022-12-07T11:32:26;99742.48;;;4.69;82.16
28701;BME280;15877;52.344;16.790;2022-12-07T11:35:08;99741.89;;;4.77;82.45
28701;BME280;15877;52.344;16.790;2022-12-07T11:37:39;99742.77;;;4.91;82.30
28701;BME280;15877;52.344;16.790;2022-12-07T11:40:19;99740.39;;;5.03;81.70
28701;BME280;15877;52.344;16.790;2022-12-07T11:42:52;99739.52;;;5.05;81.71
28701;BME280;15877;52.344;16.790;2022-12-07T11:45:23;99736.55;;;4.94;82.18
28701;BME280;15877;52.344;16.790;2022-12-07T11:47:57;99736.48;;;4.96;82.42
28701;BME280;15877;52.344;16.790;2022-12-07T11:50:33;99733.98;;;4.75;83.06
28701;BME280;15877;52.344;16.790;2022-12-07T11:53:15;99730.83;;;4.88;83.13
28701;BME280;15877;52.344;16.790;2022-12-07T11:55:49;99727.36;;;5.01;82.76
28701;BME280;15877;52.344;16.790;2022-12-07T11:58:22;99727.01;;;5.00;82.82
28701;BME280;15877;52.344;16.790;2022-12-07T12:01:00;99722.64;;;5.24;82.43
28701;BME280;15877;52.344;16.790;2022-12-07T12:03:35;99722.64;;;5.19;82.06
28701;BME280;15877;52.344;16.790;2022-12-07T12:06:07;99705.16;;;5.06;82.27
28701;BME280;15877;52.344;16.790;2022-12-07T12:08:39;99723.12;;;5.14;82.35
28701;BME280;15877;52.344;16.790;2022-12-07T12:11:43;99715.48;;;5.01;82.79
28701;BME280;15877;52.344;16.790;2022-12-07T12:14:28;99713.36;;;5.01;83.20
28701;BME280;15877;52.344;16.790;2022-12-07T12:20:01;99722.34;;;5.04;82.83
28701;BME280;15877;52.344;16.790;2022-12-07T12:22:37;99704.13;;;4.90;82.87
28701;BME280;15877;52.344;16.790;2022-12-07T12:25:15;99717.51;;;5.03;83.14
28701;BME280;15877;52.344;16.790;2022-12-07T12:27:48;99713.48;;;5.17;82.88
28701;BME280;15877;52.344;16.790;2022-12-07T12:30:31;99712.55;;;5.21;82.49
28701;BME280;15877;52.344;16.790;2022-12-07T12:33:14;99711.56;;;5.22;81.85
28701;BME280;15877;52.344;16.790;2022-12-07T12:35:46;99717.58;;;5.31;81.47
28701;BME280;15877;52.344;16.790;2022-12-07T12:38:48;99712.52;;;5.27;81.47
28701;BME280;15877;52.344;16.790;2022-12-07T12:47:40;99710.07;;;5.17;81.34
28701;BME280;15877;52.344;16.790;2022-12-07T12:50:30;99705.46;;;5.40;80.48
28701;BME280;15877;52.344;16.790;2022-12-07T12:53:20;99698.49;;;5.46;80.20
28701;BME280;15877;52.344;16.790;2022-12-07T12:56:21;99701.27;;;5.55;80.04
28701;BME280;15877;52.344;16.790;2022-12-07T12:59:22;99701.70;;;5.46;80.37
28701;BME280;15877;52.344;16.790;2022-12-07T13:01:52;99687.52;;;5.67;79.66
28701;BME280;15877;52.344;16.790;2022-12-07T13:04:47;99687.13;;;5.74;79.24
28701;BME280;15877;52.344;16.790;2022-12-07T13:10:39;99702.88;;;5.90;78.32
28701;BME280;15877;52.344;16.790;2022-12-07T13:13:31;99707.00;;;5.70;78.88
28701;BME280;15877;52.344;16.790;2022-12-07T13:16:37;99710.64;;;5.65;78.76
28701;BME280;15877;52.344;16.790;2022-12-07T13:25:23;99718.22;;;5.74;77.86
28701;BME280;15877;52.344;16.790;2022-12-07T13:28:01;99721.63;;;5.70;78.32
28701;BME280;15877;52.344;16.790;2022-12-07T13:30:29;99725.46;;;5.71;78.11
28701;BME280;15877;52.344;16.790;2022-12-07T13:32:59;99732.73;;;5.77;77.50
28701;BME280;15877;52.344;16.790;2022-12-07T13:35:30;99736.33;;;5.81;76.91
28701;BME280;15877;52.344;16.790;2022-12-07T13:38:03;99734.70;;;5.73;77.33
28701;BME280;15877;52.344;16.790;2022-12-07T13:40:33;99738.24;;;5.72;77.39
28701;BME280;15877;52.344;16.790;2022-12-07T13:43:04;99741.82;;;5.71;77.24
28701;BME280;15877;52.344;16.790;2022-12-07T13:45:34;99740.58;;;5.64;77.05
28701;BME280;15877;52.344;16.790;2022-12-07T13:48:24;99738.42;;;5.45;77.31
28701;BME280;15877;52.344;16.790;2022-12-07T13:50:57;99748.58;;;5.55;77.28